SGAS/ASU METAR and TAF weather

Enter ICAO airport designator
Station Type Date Time Source
SGAS METAR 2017/08/21 23:00 UTC NOAA

SGAS 212300Z 15002KT 4000 FU NSC 15/05 Q1023


Station Type Date Time Source
SGAS Decoded METAR 2017/08/21 23:00 UTC NOAA

Asuncion / Aeropuerto, Paraguay (SGAS) 25-16S 057-38W 101M
Aug 21, 2017 - 07:00 PM EDT / 2017.08.21 2300 UTC
Wind: from the SSE (150 degrees) at 2 MPH (2 KT):0
Visibility: 2 mile(s):0
Weather: smoke
Temperature: 59 F (15 C)
Dew Point: 41 F (5 C)
Relative Humidity: 51%
Pressure (altimeter): 30.21 in. Hg (1023 hPa)
ob: SGAS 212300Z 15002KT 4000 FU NSC 15/05 Q1023
cycle: 23

Station Type Date Time Source
SGAS TAF 2017/08/21 18:14 UTC NOAA

TAF SGAS 211612Z 2118/2218 20007KT CAVOK TX21/2119Z TN09/2210Z


Example: see airport list